createdAt,value
2022-09-12T00:02:47.653Z,12.7
2022-09-12T00:12:48.092Z,12.7
2022-09-12T00:22:48.267Z,12.7
2022-09-12T00:32:49.142Z,12.6
2022-09-12T00:42:49.300Z,12.6
2022-09-12T00:52:49.713Z,12.5
2022-09-12T01:02:50.705Z,12.4
2022-09-12T01:12:51.553Z,12.4
2022-09-12T01:22:52.135Z,12.3
2022-09-12T01:32:53.179Z,12.2
2022-09-12T01:42:53.827Z,12
2022-09-12T01:52:54.497Z,11.9
2022-09-12T02:12:56.033Z,11.9
2022-09-12T02:22:56.583Z,11.8
2022-09-12T02:32:57.074Z,11.7
2022-09-12T02:42:57.726Z,11.6
2022-09-12T02:52:58.615Z,11.5
2022-09-12T03:02:58.888Z,11.5
2022-09-12T03:12:59.112Z,11.5
2022-09-12T03:22:59.318Z,11.5
2022-09-12T03:32:59.736Z,11.6
2022-09-12T03:43:00.387Z,11.7
2022-09-12T03:53:01.500Z,11.6
2022-09-12T04:03:01.679Z,11.5
2022-09-12T04:13:02.526Z,11.6
2022-09-12T04:23:03.060Z,11.6
2022-09-12T04:43:04.012Z,11.5
2022-09-12T04:53:04.955Z,11.5
2022-09-12T05:03:05.525Z,11.5
2022-09-12T05:13:06.239Z,11.5
2022-09-12T05:23:06.435Z,11.5
2022-09-12T05:43:07.846Z,11.8
2022-09-12T05:53:08.100Z,12
2022-09-12T06:03:09.029Z,12.2
2022-09-12T06:13:10.095Z,12.4
2022-09-12T06:23:10.745Z,12.7
2022-09-12T06:33:11.213Z,13
2022-09-12T06:43:11.377Z,13.2
2022-09-12T06:53:11.675Z,13.5
2022-09-12T07:03:12.435Z,13.8
2022-09-12T07:13:13.549Z,14.1
2022-09-12T07:23:14.145Z,14.3
2022-09-12T07:33:14.401Z,14.5
2022-09-12T07:43:15.157Z,14.6
2022-09-12T07:53:15.612Z,14.7
2022-09-12T08:23:17.499Z,15.4
2022-09-12T08:33:18.167Z,15.7
2022-09-12T08:43:18.877Z,15.8
2022-09-12T08:53:19.448Z,16
2022-09-12T09:03:20.270Z,16.6
2022-09-12T09:13:21.276Z,17.3
2022-09-12T09:23:22.024Z,17.5
2022-09-12T09:33:23.128Z,18.5
2022-09-12T09:43:23.981Z,18.9
2022-09-12T09:53:24.831Z,19.5
2022-09-12T10:13:26.714Z,20
2022-09-12T10:23:26.912Z,19.6
2022-09-12T10:33:27.544Z,19.8
2022-09-12T10:43:28.362Z,20.8
2022-09-12T11:03:30.202Z,22.6
2022-09-12T11:13:31.082Z,22.9
2022-09-12T11:23:32.097Z,23.3
2022-09-12T11:33:32.513Z,23.7
2022-09-12T11:43:33.528Z,23.7
2022-09-12T11:53:34.039Z,24.5
2022-09-12T12:03:35.168Z,24.6
2022-09-12T12:13:35.264Z,24.7
2022-09-12T12:23:36.239Z,25.1
2022-09-12T12:33:36.418Z,24.6
2022-09-12T12:43:37.379Z,25.2
2022-09-12T13:03:37.757Z,25.2
2022-09-12T13:13:38.388Z,25
2022-09-12T13:23:39.367Z,25.3
2022-09-12T13:33:40.359Z,25.7
2022-09-12T13:43:40.635Z,25.7
2022-09-12T14:13:41.947Z,26.1
2022-09-12T14:23:42.163Z,25.7
2022-09-12T14:33:42.750Z,25.8
2022-09-12T14:43:43.172Z,25.8
2022-09-12T14:53:43.335Z,25.6
2022-09-12T15:03:47.357Z,25.2
2022-09-12T15:13:44.535Z,25
2022-09-12T15:23:44.946Z,24.8
2022-09-12T15:33:45.241Z,24.8
2022-09-12T15:43:45.532Z,24.7
2022-09-12T15:53:46.033Z,24.6
2022-09-12T16:03:46.639Z,24.5
2022-09-12T16:13:47.522Z,24.2
2022-09-12T16:23:47.869Z,24.1
2022-09-12T16:33:48.100Z,24
2022-09-12T16:43:49.224Z,23.8
2022-09-12T16:53:49.576Z,23.6
2022-09-12T17:03:50.584Z,23.4
2022-09-12T17:14:04.259Z,23.2
2022-09-12T17:23:51.853Z,23
2022-09-12T17:33:52.500Z,22.8
2022-09-12T17:43:52.721Z,22.5
2022-09-12T17:53:53.495Z,22.2
2022-09-12T18:13:54.712Z,21.3
2022-09-12T18:23:55.797Z,20.8
2022-09-12T18:33:56.475Z,20.4
2022-09-12T18:43:56.568Z,20.1
2022-09-12T19:03:58.310Z,19.6
2022-09-12T19:23:59.278Z,19.1
2022-09-12T19:33:59.416Z,19
2022-09-12T19:43:59.729Z,18.8
2022-09-12T19:54:00.084Z,18.4
2022-09-12T20:04:01.025Z,18.1
2022-09-12T20:14:01.197Z,18
2022-09-12T20:24:01.488Z,17.8
2022-09-12T20:34:01.937Z,17.7
2022-09-12T20:44:02.618Z,17.6
2022-09-12T20:54:03.379Z,17.3
2022-09-12T21:14:04.431Z,17.1
2022-09-12T21:34:05.614Z,16.9
2022-09-12T21:44:06.067Z,16.6
2022-09-12T21:54:07.015Z,16.5
2022-09-12T22:04:07.984Z,16.4
2022-09-12T22:14:08.537Z,16.4
2022-09-12T22:24:09.322Z,16.2
2022-09-12T22:34:10.201Z,16.2
2022-09-12T22:44:11.152Z,16.1
2022-09-12T22:54:11.731Z,16.1
2022-09-12T23:04:12.263Z,16.1
2022-09-12T23:34:13.625Z,16.2
2022-09-12T23:54:14.908Z,16.3
